Latest Weather Observations for Busselton Airport

IDW60801

Issued at 11:34 am WST Wednesday 22 February 2017 (issued every 30 minutes, with the page automatically refreshed every 10 minutes)

About weather observations | Map of weather stations | Latest weather observations for WA | Other Formats
Station Details ID: 009603 Name: BUSSELTON AERO Lat: -33.69 Lon: 115.40 Height: 16.3 m
Data from the previous 72 hours. | See also: Recent months at Busselton Airport
Date/Time
WST
Temp
°C
App
Temp
°C
Dew
Point
°C
Rel
Hum
%
Delta-T
°C
Wind Press
QNH
hPa
Press
MSL
hPa
Rain since
9am
mm
Dir  Spd
km/h
Gust
km/h
Spd
kts
Gust
kts
22/11:30am 19.6 18.2 12.1 62 4.2 N 11 17 6 9 1021.2 1021.2 0.0
22/11:00am 18.7 16.5 12.0 65 3.7 NW 15 20 8 11 1021.3 1021.3 0.0
22/10:30am 18.7 15.7 12.0 65 3.7 NNW 19 24 10 13 1021.3 1021.3 0.0
22/10:00am 19.1 17.3 10.9 59 4.4 WNW 11 17 6 9 1021.3 1021.3 0.0
22/09:30am 19.3 18.2 12.1 63 4.0 W 9 19 5 10 1021.3 1021.3 0.0
22/09:00am 18.2 16.1 11.3 64 3.7 WNW 13 19 7 10 1021.3 1021.3 0.0
22/08:30am 17.8 17.1 11.4 66 3.5 WNW 6 11 3 6 1021.2 1021.2 0.0
22/08:00am 17.0 16.7 11.3 69 3.1 S 4 7 2 4 1021.0 1021.0 0.0
22/07:30am 16.5 16.6 11.4 72 2.8 NNW 2 7 1 4 1020.6 1020.6 0.0
22/07:00am 15.9 15.2 11.3 74 2.5 N 6 7 3 4 1020.2 1020.2 0.0
22/06:30am 15.0 15.2 10.6 75 2.3 CALM 0 0 0 0 1020.0 1020.0 0.0
22/06:00am 15.0 14.7 10.2 73 2.5 ESE 2 7 1 4 1019.8 1019.8 0.0
22/05:30am 15.3 15.4 10.1 71 2.7 CALM 0 6 0 3 1019.6 1019.6 0.0
22/05:00am 15.8 14.1 9.9 68 3.1 SSW 9 11 5 6 1019.3 1019.3 0.0
22/04:30am 15.4 14.6 9.7 69 3.0 WSW 4 7 2 4 1019.1 1019.1 0.0
22/04:00am 15.0 13.7 9.8 71 2.7 SSW 7 11 4 6 1019.1 1019.1 0.0
22/03:30am 14.8 14.7 9.6 71 2.7 CALM 0 4 0 2 1018.7 1018.7 0.0
22/03:00am 14.3 13.8 9.5 73 2.5 NNW 2 7 1 4 1018.6 1018.6 0.0
22/02:30am 14.1 13.9 8.9 71 2.6 CALM 0 0 0 0 1018.5 1018.5 0.0
22/02:00am 14.1 13.4 8.7 70 2.7 WNW 2 6 1 3 1018.6 1018.6 0.0
22/01:30am 13.9 12.9 8.7 71 2.6 SSW 4 7 2 4 1018.7 1018.7 0.0
22/01:00am 14.0 12.6 8.8 71 2.6 SSW 6 7 3 4 1019.0 1019.0 0.0
22/12:30am 13.8 13.1 8.6 71 2.6 S 2 6 1 3 1018.9 1018.9 0.0
22/12:00am 13.8 13.5 8.8 72 2.5 CALM 0 0 0 0 1018.9 1018.9 0.0
 
Date/Time
WST
Temp
°C
App
Temp
°C
Dew
Point
°C
Rel
Hum
%
Delta-T
°C
Wind Press
QNH
hPa
Press
MSL
hPa
Rain since
9am
mm
Dir  Spd
km/h
Gust
km/h
Spd
kts
Gust
kts
21/11:30pm 13.3 12.9 8.2 71 2.5 CALM 0 0 0 0 1018.9 1018.9 0.0
21/11:00pm 13.6 13.1 7.8 68 2.9 CALM 0 0 0 0 1019.0 1019.0 0.0
21/10:30pm 13.5 11.9 7.9 69 2.8 SSW 6 7 3 4 1019.2 1019.2 0.0
21/10:00pm 13.3 11.4 7.5 68 2.8 SW 7 9 4 5 1019.2 1019.2 0.0
21/09:30pm 14.3 12.4 7.4 63 3.4 SW 7 9 4 5 1019.1 1019.1 0.0
21/09:00pm 14.2 12.2 7.3 63 3.4 SW 7 9 4 5 1018.9 1018.9 0.0
21/08:30pm 14.7 12.0 7.3 61 3.6 SSW 11 11 6 6 1018.6 1018.6 0.0
21/08:00pm 15.5 13.1 7.0 57 4.2 SW 9 13 5 7 1018.4 1018.4 0.0
21/07:30pm 15.7 12.1 6.7 55 4.4 SSW 15 20 8 11 1018.0 1018.0 0.0
21/07:00pm 17.2 12.1 7.8 54 4.7 SSW 24 32 13 17 1017.6 1017.6 0.0
21/06:30pm 18.1 13.5 8.1 52 5.1 SSW 22 32 12 17 1017.2 1017.2 0.0
21/06:00pm 18.4 12.6 8.1 51 5.3 SW 28 37 15 20 1016.7 1016.7 0.0
21/05:30pm 19.6 13.3 7.4 45 6.2 SSW 30 37 16 20 1016.2 1016.2 0.0
21/05:00pm 19.3 12.7 6.1 42 6.5 SSW 30 39 16 21 1015.9 1015.9 0.0
21/04:30pm 20.1 13.3 7.1 43 6.6 SSW 32 50 17 27 1015.8 1015.8 0.0
21/04:24pm 20.8 13.9 6.4 39 7.3 SW 32 50 17 27 1015.8 1015.8 0.0
21/04:00pm 20.8 14.2 6.0 38 7.4 SW 30 41 16 22 1015.6 1015.6 0.0
21/03:30pm 19.9 12.6 7.0 43 6.5 SW 35 44 19 24 1015.5 1015.5 0.0
21/03:00pm 19.7 12.3 6.8 43 6.5 SW 35 46 19 25 1015.3 1015.3 0.0
21/02:30pm 20.4 13.6 6.7 41 6.9 SW 32 41 17 22 1015.2 1015.2 0.0
21/02:00pm 20.1 14.1 7.1 43 6.6 SW 28 44 15 24 1015.3 1015.3 0.0
21/01:30pm 19.6 12.9 7.4 45 6.2 SW 32 43 17 23 1015.1 1015.1 0.0
21/01:00pm 19.6 12.4 6.0 41 6.7 WSW 33 48 18 26 1014.9 1014.9 0.0
21/12:30pm 19.5 11.1 3.6 35 7.5 SW 37 50 20 27 1014.5 1014.5 0.0
21/12:00pm 19.9 12.5 6.6 42 6.7 SW 35 54 19 29 1014.5 1014.5 0.0
21/11:51am 20.2 13.4 6.9 42 6.7 SW 32 54 17 29 1014.6 1014.6 0.0
21/11:30am 19.1 11.5 7.5 47 5.9 SW 37 50 20 27 1014.7 1014.7 0.0
21/11:21am 18.6 11.8 7.1 47 5.8 SW 32 50 17 27 1014.7 1014.7 0.0
21/11:00am 19.3 13.4 7.4 46 6.1 WSW 28 44 15 24 1014.4 1014.4 0.0
21/10:51am 18.8 12.4 6.9 46 6.0 WSW 30 41 16 22 1014.2 1014.2 0.0
21/10:30am 19.4 11.5 6.2 42 6.6 SW 37 50 20 27 1014.3 1014.3 0.0
21/10:21am 19.1 12.8 5.6 41 6.6 SW 28 46 15 25 1014.4 1014.4 0.0
21/10:00am 18.5 11.1 6.7 46 5.9 SW 35 48 19 26 1014.4 1014.4 0.0
21/09:30am 18.7 11.5 7.5 48 5.7 SW 35 46 19 25 1014.2 1014.2 0.0
21/09:00am 17.4 10.7 7.5 52 5.0 SW 32 43 17 23 1013.9 1013.9 2.0
21/08:30am 17.2 10.2 7.0 51 5.1 SW 33 46 18 25 1013.7 1013.7 2.0
21/08:00am 16.3 11.1 9.0 62 3.8 SW 26 35 14 19 1013.2 1013.2 2.0
21/07:30am 15.6 11.8 9.1 65 3.3 SW 19 26 10 14 1012.6 1012.6 2.0
21/07:00am 14.0 10.6 9.2 73 2.4 SW 17 28 9 15 1012.3 1012.3 2.0
21/06:30am 14.1 12.6 10.5 79 1.9 SW 9 11 5 6 1011.7 1011.7 2.0
21/06:00am 14.4 12.6 10.8 79 1.9 WSW 11 17 6 9 1011.3 1011.3 2.0
21/05:30am 14.6 13.1 11.9 84 1.5 SW 11 17 6 9 1010.9 1010.9 2.0
21/05:00am 14.8 13.3 13.0 89 1.0 SW 13 20 7 11 1010.5 1010.5 2.0
21/04:30am 15.0 13.2 13.4 90 0.9 SW 15 19 8 10 1010.3 1010.3 2.0
21/04:00am 14.7 13.6 13.2 91 0.8 WSW 11 15 6 8 1010.0 1010.0 2.0
21/03:30am 14.8 12.6 13.3 91 0.8 SW 17 22 9 12 1009.9 1009.9 2.0
21/03:00am 15.4 12.8 13.8 90 0.9 WSW 20 30 11 16 1009.8 1009.8 1.6
21/02:30am 15.5 14.2 13.7 89 1.0 NW 13 15 7 8 1009.4 1009.4 0.0
21/02:00am 14.8 13.9 12.7 87 1.2 NNW 9 15 5 8 1010.0 1010.0 0.0
21/01:30am 15.6 14.3 12.4 81 1.8 W 11 15 6 8 1010.7 1010.7 0.0
21/01:00am 17.8 15.6 10.9 64 3.7 WNW 13 19 7 10 1010.8 1010.8 0.0
21/12:30am 16.9 15.4 10.7 67 3.3 NW 9 11 5 6 1011.0 1011.0 0.0
21/12:00am 17.2 15.1 9.9 62 3.9 NW 11 15 6 8 1011.5 1011.5 0.0
 
Date/Time
WST
Temp
°C
App
Temp
°C
Dew
Point
°C
Rel
Hum
%
Delta-T
°C
Wind Press
QNH
hPa
Press
MSL
hPa
Rain since
9am
mm
Dir  Spd
km/h
Gust
km/h
Spd
kts
Gust
kts
20/11:30pm 17.2 15.6 10.1 63 3.8 NW 9 19 5 10 1011.7 1011.7 0.0
20/11:00pm 16.5 16.3 10.4 67 3.2 NW 2 7 1 4 1012.2 1012.2 0.0
20/10:30pm 16.1 14.8 9.8 66 3.3 NW 7 7 4 4 1012.2 1012.2 0.0
20/10:00pm 16.8 15.5 10.0 64 3.6 W 7 11 4 6 1012.4 1012.4 0.0
20/09:30pm 15.8 14.5 9.2 65 3.4 W 6 9 3 5 1012.4 1012.4 0.0
20/09:00pm 16.7 15.4 9.9 64 3.6 WSW 7 9 4 5 1012.1 1012.1 0.0
20/08:30pm 17.1 15.4 10.0 63 3.7 WSW 9 13 5 7 1012.5 1012.5 0.0
20/08:00pm 17.9 15.3 10.8 63 3.8 WSW 15 20 8 11 1012.2 1012.2 0.0
20/07:30pm 17.4 14.4 10.8 65 3.5 SW 17 20 9 11 1012.7 1012.7 0.0
20/07:00pm 18.4 14.9 10.8 61 4.1 SW 20 30 11 16 1012.2 1012.2 0.0
20/06:30pm 19.8 15.3 11.3 58 4.7 SW 26 35 14 19 1011.3 1011.3 0.0
20/06:00pm 21.2 17.7 12.1 56 5.1 SW 22 33 12 18 1010.9 1010.9 0.0
20/05:30pm 21.4 17.8 12.0 55 5.3 WSW 22 28 12 15 1010.5 1010.5 0.0
20/05:00pm 21.8 18.1 12.6 56 5.2 WSW 24 33 13 18 1010.6 1010.6 0.0
20/04:30pm 22.1 17.3 12.9 56 5.3 SW 30 39 16 21 1010.9 1010.9 0.0
20/04:00pm 23.3 18.7 13.5 54 5.7 WSW 30 39 16 21 1010.7 1010.7 0.0
20/03:30pm 24.4 20.7 13.9 52 6.2 WSW 26 37 14 20 1010.6 1010.6 0.0
20/03:00pm 24.7 20.6 14.8 54 5.9 WSW 30 39 16 21 1010.4 1010.4 0.0
20/02:30pm 26.0 23.4 14.8 50 6.7 WNW 22 39 12 21 1010.4 1010.4 0.0
20/02:00pm 25.8 23.1 14.6 50 6.7 NNW 22 28 12 15 1010.7 1010.7 0.0
20/01:30pm 25.1 21.5 13.0 47 7.0 N 24 32 13 17 1011.1 1011.1 0.0
20/01:00pm 24.9 23.5 13.5 49 6.7 NW 13 20 7 11 1011.6 1011.6 0.0
20/12:30pm 24.7 23.0 12.3 46 7.1 S 13 20 7 11 1012.0 1012.0 0.0
20/12:00pm 24.5 22.9 12.8 48 6.8 SW 13 22 7 12 1012.3 1012.3 0.0
20/11:30am 23.3 20.9 12.6 51 6.1 SSW 17 28 9 15 1013.0 1013.0 0.0
20/11:00am 23.7 22.5 12.7 50 6.3 SSE 11 24 6 13 1013.3 1013.3 0.0
20/10:30am 22.1 20.0 12.4 54 5.5 S 15 26 8 14 1013.7 1013.7 0.0
20/10:00am 22.4 20.0 12.6 54 5.6 SSW 17 28 9 15 1014.0 1014.0 0.0
20/09:30am 20.8 17.3 12.2 58 4.8 S 22 28 12 15 1014.3 1014.3 0.0
20/09:00am 20.5 17.0 12.2 59 4.6 S 22 33 12 18 1014.2 1014.2 0.0
20/08:30am 19.5 16.8 12.8 65 3.8 S 19 28 10 15 1014.4 1014.4 0.0
20/08:00am 18.5 17.6 13.8 74 2.7 SSW 11 17 6 9 1014.5 1014.5 0.0
20/07:30am 17.1 17.0 13.8 81 1.9 SSW 7 11 4 6 1014.4 1014.4 0.0
20/07:00am 16.5 16.1 14.0 85 1.4 SW 9 11 5 6 1014.4 1014.4 0.0
20/06:30am 15.4 14.7 13.1 86 1.3 SSW 9 9 5 5 1014.1 1014.1 0.0
20/06:00am 15.5 15.1 13.0 85 1.4 SW 7 9 4 5 1014.0 1014.0 0.0
20/05:30am 15.4 14.5 12.7 84 1.5 S 9 11 5 6 1013.6 1013.6 0.0
20/05:00am 15.7 14.8 12.6 82 1.7 SSE 9 13 5 7 1013.7 1013.7 0.0
20/04:30am 16.2 14.3 12.9 81 1.8 S 15 19 8 10 1013.3 1013.3 0.0
20/04:00am 16.6 14.7 12.9 79 2.1 S 15 20 8 11 1013.1 1013.1 0.0
20/03:30am 16.9 14.2 13.0 78 2.2 SSW 19 24 10 13 1013.2 1013.2 0.0
20/03:00am 17.1 14.4 13.4 79 2.1 S 20 24 11 13 1013.2 1013.2 0.0
20/02:30am 17.4 15.4 13.9 80 2.0 SSW 17 24 9 13 1013.3 1013.3 0.0
20/02:00am 17.6 15.2 13.9 79 2.1 S 19 26 10 14 1013.0 1013.0 0.0
20/01:30am 18.3 15.8 14.2 77 2.4 S 20 28 11 15 1012.9 1012.9 0.0
20/01:00am 18.6 16.8 14.5 77 2.4 S 17 19 9 10 1012.9 1012.9 0.0
20/12:30am 18.8 15.7 14.5 76 2.5 S 24 32 13 17 1013.0 1013.0 0.0
20/12:00am 19.0 16.3 14.7 76 2.5 SSW 22 28 12 15 1013.5 1013.5 0.0
 
Date/Time
WST
Temp
°C
App
Temp
°C
Dew
Point
°C
Rel
Hum
%
Delta-T
°C
Wind Press
QNH
hPa
Press
MSL
hPa
Rain since
9am
mm
Dir  Spd
km/h
Gust
km/h
Spd
kts
Gust
kts
19/11:30pm 19.2 16.2 14.7 75 2.6 S 24 35 13 19 1013.7 1013.7 0.0
19/11:00pm 20.0 17.7 15.8 77 2.5 SSW 22 30 12 16 1013.7 1013.7 0.0
19/10:30pm 20.7 18.2 16.1 75 2.8 SSW 24 32 13 17 1013.7 1013.7 0.0
19/10:00pm 21.7 19.8 15.3 67 3.8 SSW 19 28 10 15 1013.7 1013.7 0.0
19/09:30pm 22.5 20.9 13.8 58 5.1 S 15 20 8 11 1013.6 1013.6 0.0
19/09:00pm 23.4 21.2 13.3 53 5.8 S 17 20 9 11 1013.5 1013.5 0.0
19/08:30pm 24.3 22.4 14.1 53 6.0 S 17 20 9 11 1012.9 1012.9 0.0
19/08:00pm 24.9 22.6 13.1 48 6.9 SSW 17 22 9 12 1012.6 1012.6 0.0
19/07:30pm 26.0 23.2 13.2 45 7.5 SSW 20 28 11 15 1012.3 1012.3 0.0
19/07:00pm 26.8 23.6 13.2 43 8.0 SSW 22 28 12 15 1012.0 1012.0 0.0
19/06:30pm 28.6 25.3 12.9 38 9.2 SW 22 26 12 14 1011.7 1011.7 0.0
19/06:00pm 30.3 26.6 12.7 34 10.4 SW 24 30 13 16 1011.3 1011.3 0.0
19/05:30pm 31.7 28.7 12.5 31 11.4 WSW 20 28 11 15 1011.0 1011.0 0.0
19/05:00pm 32.4 29.6 12.6 30 11.8 SW 19 28 10 15 1011.2 1011.2 0.0
19/04:30pm 32.2 31.0 13.9 33 11.1 NW 13 17 7 9 1011.4 1011.4 0.0
19/04:00pm 31.4 29.0 12.7 32 11.1 NW 17 20 9 11 1011.7 1011.7 0.0
19/03:30pm 31.5 28.8 12.8 32 11.1 NW 19 24 10 13 1011.8 1011.8 0.0
19/03:00pm 31.9 28.9 12.7 31 11.4 NNW 20 28 11 15 1012.0 1012.0 0.0
19/02:30pm 32.1 28.3 12.3 29 11.7 NW 24 33 13 18 1012.3 1012.3 0.0
19/02:00pm 32.2 28.8 12.4 30 11.7 NW 22 32 12 17 1012.7 1012.7 0.0
19/01:30pm 31.5 27.5 11.8 30 11.5 NNW 24 33 13 18 1012.9 1012.9 0.0
19/01:00pm 31.9 28.6 11.7 29 11.8 NNW 20 28 11 15 1013.3 1013.3 0.0
19/12:30pm 31.6 28.6 11.9 30 11.6 NNW 19 24 10 13 1013.4 1013.4 0.0
19/12:00pm 31.4 28.1 11.7 29 11.5 N 20 28 11 15 1013.5 1013.5 0.0

Other Formats:

Comma delimited format used in spreadsheet applications
http://www.bom.gov.au/fwo/IDW60801/IDW60801.95611.axf

JavaScript Object Notation format (JSON) in row-major order
http://www.bom.gov.au/fwo/IDW60801/IDW60801.95611.json